Maersk Detroit — WMDK — position and weather

sailwx.info

Track history (hours):
 
Tides and Currents Weather Stations Pressure Air Temp Water Temp Dewpoint Dewpoint Depression Visibility Wind Speed Wind Dir Waves Ship Positions

Maersk Detroit

Owner: MAERSK LINE, LIMITED, NORFOLK, VA. More information available from US FCC via Universal Licensing System and Coast Guard Vessel Documentation Center.

Last reported at 2018-Apr-18 23:08 UTC. Time now 2018-Apr-19 23:17 UTC.
Position N 36°48' E 001°26'.

Length 299 m; draft 14.1 m.

Type: Cargo ship. MMSI: 338474000.

Date/timePositionNaut miles runAvg speedWind from/ knotsBaromVisibWave heightAir tempDewpointWater temp
2018-Apr-18 23:08N 36°48' E 001°26'215.3
2018-Apr-18 22:59N 36°47' E 001°24'915.0
2018-Apr-18 22:23N 36°46' E 001°12'814.7
2018-Apr-18 21:51N 36°45' E 001°03'1314.7
2018-Apr-18 20:58N 36°43' E 000°47'714.4
2018-Apr-18 20:30N 36°42' E 000°39'814.2
2018-Apr-18 19:55N 36°41' E 000°28'814.1
2018-Apr-18 19:20N 36°40' E 000°18'514.0
2018-Apr-18 18:59N 36°39' E 000°12'714.5
2018-Apr-18 18:29N 36°38' E 000°03'715.0
2018-Apr-18 18:00N 36°37' W 000°06'714.7
2018-Apr-18 17:30N 36°36' W 000°15'814.7
2018-Apr-18 17:00N 36°35' W 000°24'23215.4
2018-Apr-18 01:56N 36°03' W 005°09'613.6
2018-Apr-18 01:30N 36°04' W 005°16'612.6
2018-Apr-18 01:00N 36°07' W 005°23'3 6.1
2018-Apr-18 00:30N 36°09' W 005°26'0 0.7
2018-Apr-18 00:00N 36°09' W 005°26'0 0.0
2018-Apr-17 23:30N 36°09' W 005°26'0 0.0
2018-Apr-17 23:00N 36°09' W 005°26'0 0.0
2018-Apr-17 22:30N 36°09' W 005°26'0 0.0
2018-Apr-17 21:59N 36°09' W 005°26'0 0.0
2018-Apr-17 21:30N 36°09' W 005°26'0 0.0
2018-Apr-17 21:00N 36°09' W 005°26'0 0.0
2018-Apr-17 20:30N 36°09' W 005°26'0 0.0
2018-Apr-17 20:00N 36°09' W 005°26'0 0.0
2018-Apr-17 19:29N 36°09' W 005°26'0 0.0
2018-Apr-17 19:00N 36°09' W 005°26'0 0.0
2018-Apr-17 18:30N 36°09' W 005°26'0 0.0
2018-Apr-17 17:59N 36°09' W 005°26'0 0.0
2018-Apr-17 17:30N 36°09' W 005°26'0 0.0
2018-Apr-17 17:00N 36°09' W 005°26'0 0.0
2018-Apr-17 16:30N 36°09' W 005°26'0 0.0
2018-Apr-17 15:59N 36°09' W 005°26'0 0.0
2018-Apr-17 15:30N 36°09' W 005°26'347 9.0
2018-Apr-16 01:00N 36°06' W 012°36'22817.5 280 / 81021.810.8 14.010.216.0
2018-Apr-15 12:00N 36°12' W 017°18'20317.0 290 / 81022.510.8 16.010.317.0
2018-Apr-15 00:00N 36°24' W 021°30'11218.1 330 / 121023.210.8 16.010.318.0
2018-Apr-14 17:48N 36°31' W 023°49'517.4
2018-Apr-14 17:30N 36°32' W 023°55'917.5
2018-Apr-14 17:00N 36°33' W 024°06'917.5
2018-Apr-14 16:30N 36°34' W 024°17'917.6
2018-Apr-14 16:00N 36°35' W 024°28'918.0
2018-Apr-14 15:30N 36°37' W 024°39'917.8
2018-Apr-14 15:00N 36°39' W 024°49'917.8
2018-Apr-14 14:30N 36°40' W 025°00'917.8
2018-Apr-14 14:00N 36°41' W 025°11'7520.9
2018-Apr-14 14:00N 36°36' W 025°06'1530.5 310 / 121021.510.8 18.010.618.0
2018-Apr-14 13:30N 36°43' W 025°22'918.0
2018-Apr-14 13:00N 36°44' W 025°34'918.0
2018-Apr-14 12:31N 36°46' W 025°45'918.0
2018-Apr-14 12:00N 36°47' W 025°56'917.9
2018-Apr-14 11:30N 36°49' W 026°07'917.8
2018-Apr-14 11:00N 36°51' W 026°18'917.9
2018-Apr-14 10:30N 36°54' W 026°28'7117.9
2018-Apr-14 06:31N 37°17' W 027°53'617.5
2018-Apr-14 06:10N 37°18' W 028°00'317.6
2018-Apr-14 05:58N 37°19' W 028°04'817.6
2018-Apr-14 05:30N 37°22' W 028°14'917.8
2018-Apr-14 05:00N 37°25' W 028°25'917.6
2018-Apr-14 04:30N 37°27' W 028°35'917.9
2018-Apr-14 04:00N 37°30' W 028°46'917.7
2018-Apr-14 03:30N 37°33' W 028°57'917.7
2018-Apr-14 03:00N 37°36' W 029°08'1017.8
2018-Apr-14 02:26N 37°39' W 029°19'818.1
2018-Apr-14 02:00N 37°41' W 029°29'2817.8
2018-Apr-14 00:26N 37°50' W 030°03'1117.9
2018-Apr-13 23:49N 37°54' W 030°15'17117.4
2018-Apr-13 14:00N 38°48' W 033°42'20817.4 250 / 261015.6 2.2 19.013.818.0
2018-Apr-13 02:00N 39°48' W 038°00'35015.9 230 / 151014.010.8 17.015.317.0
2018-Apr-12 04:00N 41°00' W 045°30'19115.9 270 / 121009.8 5.4 16.014.313.0
2018-Apr-11 16:00N 40°48' W 049°42'16914.1 170 / 251016.3 1.1 14.012.218.0
2018-Apr-11 04:00N 40°30' W 053°24'16216.2 120 / 121025.110.8 12.0 5.516.0
2018-Apr-10 18:00N 40°06' W 056°54'16914.0 300 / 161025.310.8 12.0 2.817.0
2018-Apr-10 06:00N 39°36' W 060°30'7217.9 320 / 181022.010.8 8.0-3.018.0
2018-Apr-10 02:00N 39°18' W 062°00'13416.7 290 / 201022.810.8 9.0-1.421.2
2018-Apr-09 18:00N 38°48' W 064°48'18215.2 290 / 221020.310.8 9.0-1.423.0
2018-Apr-09 06:00N 37°54' W 068°30'   330 / 221015.610.8 6.0-6.2 6.0
Track history (hours):
 
Tides and Currents Weather Stations Pressure Air Temp Water Temp Dewpoint Dewpoint Depression Visibility Wind Speed Wind Dir Waves Ship Positions

Maersk Detroit

Owner: MAERSK LINE, LIMITED, NORFOLK, VA. More information available from US FCC via Universal Licensing System and Coast Guard Vessel Documentation Center.

Last reported at 2018-Apr-18 23:08 UTC. Time now 2018-Apr-19 23:17 UTC.
Position N 36°48' E 001°26'.

Length 299 m; draft 14.1 m.

Type: Cargo ship. MMSI: 338474000.

Date/timePositionNaut miles runAvg speedWind from/ knotsBaromVisibWave heightAir tempDewpointWater temp
2018-Apr-18 23:08N 36°48' E 001°26'215.3
2018-Apr-18 22:59N 36°47' E 001°24'915.0
2018-Apr-18 22:23N 36°46' E 001°12'814.7
2018-Apr-18 21:51N 36°45' E 001°03'1314.7
2018-Apr-18 20:58N 36°43' E 000°47'714.4
2018-Apr-18 20:30N 36°42' E 000°39'814.2
2018-Apr-18 19:55N 36°41' E 000°28'814.1
2018-Apr-18 19:20N 36°40' E 000°18'514.0
2018-Apr-18 18:59N 36°39' E 000°12'714.5
2018-Apr-18 18:29N 36°38' E 000°03'715.0
2018-Apr-18 18:00N 36°37' W 000°06'714.7
2018-Apr-18 17:30N 36°36' W 000°15'814.7
2018-Apr-18 17:00N 36°35' W 000°24'23215.4
2018-Apr-18 01:56N 36°03' W 005°09'613.6
2018-Apr-18 01:30N 36°04' W 005°16'612.6
2018-Apr-18 01:00N 36°07' W 005°23'3 6.1
2018-Apr-18 00:30N 36°09' W 005°26'0 0.7
2018-Apr-18 00:00N 36°09' W 005°26'0 0.0
2018-Apr-17 23:30N 36°09' W 005°26'0 0.0
2018-Apr-17 23:00N 36°09' W 005°26'0 0.0
2018-Apr-17 22:30N 36°09' W 005°26'0 0.0
2018-Apr-17 21:59N 36°09' W 005°26'0 0.0
2018-Apr-17 21:30N 36°09' W 005°26'0 0.0
2018-Apr-17 21:00N 36°09' W 005°26'0 0.0
2018-Apr-17 20:30N 36°09' W 005°26'0 0.0
2018-Apr-17 20:00N 36°09' W 005°26'0 0.0
2018-Apr-17 19:29N 36°09' W 005°26'0 0.0
2018-Apr-17 19:00N 36°09' W 005°26'0 0.0
2018-Apr-17 18:30N 36°09' W 005°26'0 0.0
2018-Apr-17 17:59N 36°09' W 005°26'0 0.0
2018-Apr-17 17:30N 36°09' W 005°26'0 0.0
2018-Apr-17 17:00N 36°09' W 005°26'0 0.0
2018-Apr-17 16:30N 36°09' W 005°26'0 0.0
2018-Apr-17 15:59N 36°09' W 005°26'0 0.0
2018-Apr-17 15:30N 36°09' W 005°26'347 9.0
2018-Apr-16 01:00N 36°06' W 012°36'22817.5 280 / 81021.810.8 14.010.216.0
2018-Apr-15 12:00N 36°12' W 017°18'20317.0 290 / 81022.510.8 16.010.317.0
2018-Apr-15 00:00N 36°24' W 021°30'11218.1 330 / 121023.210.8 16.010.318.0
2018-Apr-14 17:48N 36°31' W 023°49'517.4
2018-Apr-14 17:30N 36°32' W 023°55'917.5
2018-Apr-14 17:00N 36°33' W 024°06'917.5
2018-Apr-14 16:30N 36°34' W 024°17'917.6
2018-Apr-14 16:00N 36°35' W 024°28'918.0
2018-Apr-14 15:30N 36°37' W 024°39'917.8
2018-Apr-14 15:00N 36°39' W 024°49'917.8
2018-Apr-14 14:30N 36°40' W 025°00'917.8
2018-Apr-14 14:00N 36°41' W 025°11'7520.9
2018-Apr-14 14:00N 36°36' W 025°06'1530.5 310 / 121021.510.8 18.010.618.0
2018-Apr-14 13:30N 36°43' W 025°22'918.0
2018-Apr-14 13:00N 36°44' W 025°34'918.0
2018-Apr-14 12:31N 36°46' W 025°45'918.0
2018-Apr-14 12:00N 36°47' W 025°56'917.9
2018-Apr-14 11:30N 36°49' W 026°07'917.8
2018-Apr-14 11:00N 36°51' W 026°18'917.9
2018-Apr-14 10:30N 36°54' W 026°28'7117.9
2018-Apr-14 06:31N 37°17' W 027°53'617.5
2018-Apr-14 06:10N 37°18' W 028°00'317.6
2018-Apr-14 05:58N 37°19' W 028°04'817.6
2018-Apr-14 05:30N 37°22' W 028°14'917.8
2018-Apr-14 05:00N 37°25' W 028°25'917.6
2018-Apr-14 04:30N 37°27' W 028°35'917.9
2018-Apr-14 04:00N 37°30' W 028°46'917.7
2018-Apr-14 03:30N 37°33' W 028°57'917.7
2018-Apr-14 03:00N 37°36' W 029°08'1017.8
2018-Apr-14 02:26N 37°39' W 029°19'818.1
2018-Apr-14 02:00N 37°41' W 029°29'2817.8
2018-Apr-14 00:26N 37°50' W 030°03'1117.9
2018-Apr-13 23:49N 37°54' W 030°15'17117.4
2018-Apr-13 14:00N 38°48' W 033°42'20817.4 250 / 261015.6 2.2 19.013.818.0
2018-Apr-13 02:00N 39°48' W 038°00'35015.9 230 / 151014.010.8 17.015.317.0
2018-Apr-12 04:00N 41°00' W 045°30'19115.9 270 / 121009.8 5.4 16.014.313.0
2018-Apr-11 16:00N 40°48' W 049°42'16914.1 170 / 251016.3 1.1 14.012.218.0
2018-Apr-11 04:00N 40°30' W 053°24'16216.2 120 / 121025.110.8 12.0 5.516.0
2018-Apr-10 18:00N 40°06' W 056°54'16914.0 300 / 161025.310.8 12.0 2.817.0
2018-Apr-10 06:00N 39°36' W 060°30'7217.9 320 / 181022.010.8 8.0-3.018.0
2018-Apr-10 02:00N 39°18' W 062°00'13416.7 290 / 201022.810.8 9.0-1.421.2
2018-Apr-09 18:00N 38°48' W 064°48'18215.2 290 / 221020.310.8 9.0-1.423.0
2018-Apr-09 06:00N 37°54' W 068°30'   330 / 221015.610.8 6.0-6.2 6.0

Dump ship's entire track history